Tiempo atmosférico en la estación meteorológica de Monesterio, Badajoz (750 m.)



Fecha
DESCASC
Temp. máxima en grados centígrados (hora)
DESCASC
Temp. mínima en grados centígrados (hora)
DESCASC
Temp. media en grados centígrados
DESCASC
Racha de viento máxima en m/sg (hora)
DESCASC
Velocidad máxima media en intervalos de 10 minutos(hora)
DESCASC
Precipitaciones diarias en mm
DESCASC
Precipitaciones de 00:00 a 06:00 en mm
DESCASC
Precipitaciones de 06:00 a 12:00 en mm
DESCASC
Precipitaciones de 12:00 a 18:00 en mm
DESCASC
Precipitaciones de 18:00 a 24:00 en mm
DESCASC
28-02-2021 13.4 (14:50) 6.2 (08:00) 9.8 10.83 (11:40) 6.39 (11:00) 0 0 0 0 0
27-02-2021 13.8 (15:30) 5.9 (06:00) 9.9 7.5 (11:40) 5 (11:40) 0 0 0 0 0
26-02-2021 14.5 (16:10) 7.9 (02:20) 11.2 7.5 (12:00) 4.44 (12:00) 0.2 0 0.2 0 0
25-02-2021 12.9 (13:50) 5.3 (00:00) 9.1 7.5 (03:10) 4.72 (03:10) 0 0 0 0 0
24-02-2021 14.2 (16:30) 6.1 (00:00) 10.1 13.33 (09:50) 7.78 (10:20) 0 0 0 0 0
23-02-2021 13.6 (15:40) 4.9 (00:00) 9.3 9.17 (13:30) 5.28 (13:50) 0 0 0 0 0
22-02-2021 11.3 (16:40) 2.9 (00:00) 7.1 9.72 (03:10) 5.28 (01:00) 0 0 0 0 0
21-02-2021 10.4 (02:30) 3.8 (00:00) 7.1 19.17 (05:10) 8.61 (01:50) 23.2 0.2 22.4 0.6 0
20-02-2021 13.9 (16:20) 7.8 (00:00) 10.8 16.94 (09:10) 10.28 (10:50) 0 0 0 0 0
19-02-2021 14.5 (15:20) 5 (00:00) 9.8 14.72 (23:50) 8.89 (23:50) 0.2 0 0.2 0 0
18-02-2021 17.3 (15:10) 7.8 (00:00) 12.5 7.5 (14:20) 3.61 (14:30) 0 0 0 0 0
17-02-2021 19.7 (15:40) 5.9 (00:00) 12.8 7.78 (15:10) 3.89 (12:20) 0 0 0 0 0
16-02-2021 18 (15:30) 7.4 (00:00) 12.7 10.83 (08:40) 6.39 (08:50) 0 0 0 0 0
15-02-2021 15.4 (14:50) 6.3 (00:00) 10.8 11.11 (22:00) 6.94 (19:20) 0 0 0 0 0
14-02-2021 17.9 (15:50) 6.3 (00:00) 12.1 8.61 (23:59) 5.83 (23:40) 0.2 0 0 0.2 0
13-02-2021 15.7 (16:00) 5 (00:00) 10.3 5.28 (14:20) 3.06 (06:10) 0 0 0 0 0
12-02-2021 12.5 (16:40) 7 (00:00) 9.8 9.72 (08:40) 5.83 (12:40) 0 0 0 0 0
11-02-2021 12.3 (15:40) 8.7 (00:00) 10.5 6.67 (22:30) 3.89 (23:40) 0 0 0 0 0
10-02-2021 12.3 (17:20) 7.9 (00:00) 10.1 13.33 (00:20) 6.39 (00:20) 7.2 2.8 2.2 0.6 1.6
09-02-2021 10.2 (15:00) 6.2 (00:00) 8.2 16.94 (10:30) 8.61 (12:20) -- -- -- 7.6 1.4
08-02-2021 10 (15:40) 6.1 (00:00) 8 16.39 (05:10) 8.06 (05:10) -- -- -- -- --
07-02-2021 6.8 (15:00) 4.1 (00:00) 5.5 12.22 (23:20) 6.11 (23:40) -- -- -- -- --
06-02-2021 8.2 (13:20) 5.6 (00:00) 6.9 8.89 (00:20) 3.89 (00:20) -- -- -- -- --
05-02-2021 10.3 (04:10) 7.4 (00:00) 8.9 12.22 (20:40) 6.39 (18:40) -- -- -- -- --
04-02-2021 10.1 (16:10) 7.4 (00:00) 8.8 12.22 (12:00) 6.67 (12:40) 0 0 0 0 0
03-02-2021 11.7 (15:40) 7.5 (00:00) 9.6 11.67 (11:50) 6.39 (12:30) 0 0 0 0 0
02-02-2021 12.6 (15:20) 7.9 (00:00) 10.3 6.67 (16:10) 3.61 (16:10) 0 0 0 0 0
01-02-2021 13.4 (16:00) 7.1 (00:00) 10.2 12.78 (01:50) 6.94 (02:10) 0 0 0 0 0
31-01-2021 11.8 (15:10) 6.3 (00:00) 9.1 13.61 (02:10) 7.78 (00:40) 0 0 0 0 0

Gráficas

Temp. máximas Temp. mínimas Temp. medias Precipitaciones Rachas de viento máximas Velocidades máximas media en intervalos de 10 minutos

Datos horarios

Fecha y hora oficial Temperatura (ºC) Velocidad del viento (km/h) Dirección del viento Racha (km/h) Dirección de racha Precipitación (mm) Presión (hPa) Tendencia (hPa) Humedad (%)
2021-03-01 23:00:00 -- -- -- -- -- -- -- -- --
2021-03-01 22:00:00 9.1 0 Calma 4 Sur 0 -- -- 86
2021-03-01 21:00:00 9.2 3 Sudeste 5 Sudeste 0 -- -- 84
2021-03-01 20:00:00 10 3 Sudeste 6 Sur 0 -- -- 79
2021-03-01 19:00:00 11.9 4 Sur 11 Sudeste 0 -- -- 72
2021-03-01 18:00:00 12.9 4 Este 14 Este 0 -- -- 68
2021-03-01 17:00:00 13.9 9 Este 19 Sudeste 0 -- -- 64
2021-03-01 16:00:00 13.9 11 Sudeste 19 Sudeste 0 -- -- 66
2021-03-01 15:00:00 13.6 7 Este 21 Sudeste 0 -- -- 70
2021-03-01 14:00:00 12.5 10 Este 18 Este 0 -- -- 77
2021-03-01 13:00:00 11.8 8 Este 15 Sudeste 0 -- -- 80
2021-03-01 12:00:00 11.2 10 Sudeste 22 Este 0 -- -- 82
2021-03-01 11:00:00 10 8 Sudeste 15 Sudeste 0 -- -- 88
2021-03-01 10:00:00 8.2 4 Este 10 Sudeste 0 -- -- 94
2021-03-01 09:00:00 7.2 4 Este 9 Sudeste 0 -- -- 96
2021-03-01 08:00:00 6.8 4 Sudeste 14 Sur 0 -- -- 93
2021-03-01 07:00:00 7.3 9 Sudeste 15 Sudeste 0 -- -- 93
2021-03-01 06:00:00 7.3 7 Sudeste 17 Sudeste 0 -- -- 94
2021-03-01 05:00:00 7 7 Sur 12 Sur 0 -- -- 94
2021-03-01 04:00:00 6.1 3 Sur 5 Sudeste 0 -- -- 94
2021-03-01 03:00:00 6.8 4 Sur 9 Sur 0 -- -- 90
2021-03-01 02:00:00 6.9 4 Sur 9 Sur 0 -- -- 89
2021-03-01 01:00:00 7.3 4 Sur 14 Sudeste 0 -- -- 87
2021-03-01 00:00:00 8.1 10 Sur 14 Sur 0 -- -- 85
2021-02-28 23:00:00 7.9 9 Sur 13 Sudeste 0 -- -- 85
2021-02-28 22:00:00 7.9 7 Sur 12 Sur 0 -- -- 85
2021-02-28 21:00:00 7.9 6 Sur 8 Sur 0 -- -- 84
2021-02-28 20:00:00 8.9 5 Sur 7 Este 0 -- -- 84
2021-02-28 19:00:00 11.1 3 Este 7 Sudeste 0 -- -- 78
2021-02-28 18:00:00 11.5 5 Sudeste 14 Sudeste 0 -- -- 76
2021-02-28 17:00:00 11.8 8 Sudeste 19 Sudeste 0 -- -- 74
2021-02-28 16:00:00 12.3 13 Sudeste 21 Este 0 -- -- 72
2021-02-28 15:00:00 13 13 Sudeste 28 Sudeste 0 -- -- 71
2021-02-28 14:00:00 12.1 14 Sudeste 25 Sudeste 0 -- -- 71
2021-02-28 13:00:00 12.5 13 Sudeste 35 Sudeste 0 -- -- 71
2021-02-28 12:00:00 10.8 21 Sudeste 39 Sudeste 0 -- -- 77
2021-02-28 11:00:00 10.4 23 Sudeste 39 Sudeste 0 -- -- 81
2021-02-28 10:00:00 9.1 19 Sudeste 31 Sudeste 0 -- -- 87
2021-02-28 09:00:00 7.5 15 Sudeste 23 Sudeste 0 -- -- 92
2021-02-28 08:00:00 6.2 8 Sudeste 17 Sudeste 0 -- -- 93
2021-02-28 07:00:00 6.5 7 Sur 16 Sur 0 -- -- 90
2021-02-28 06:00:00 6.7 8 Sudeste 14 Sudeste 0 -- -- 89
2021-02-28 05:00:00 7 5 Sudeste 24 Sudeste 0 -- -- 91
2021-02-28 04:00:00 7.5 15 Sudeste 24 Sudeste 0 -- -- 90
2021-02-28 03:00:00 7.7 8 Sudeste 15 Sur 0 -- -- 96
2021-02-28 02:00:00 7.5 4 Sur 9 Sudeste 0 -- -- 97
2021-02-28 01:00:00 7.5 2 Sur 9 Sur 0 -- -- 95
2021-02-28 00:00:00 8.1 2 Sur 12 Sur 0 -- -- 94
2021-02-27 23:00:00 9.1 8 Sur 11 Sur 0 -- -- 91
2021-02-27 22:00:00 9.7 3 Sur 7 Sudeste 0 -- -- 88
2021-02-27 21:00:00 9.8 3 Sur 10 Sur 0 -- -- 89
2021-02-27 20:00:00 10.4 4 Sur 20 Sudeste 0 -- -- 85
2021-02-27 19:00:00 12.4 6 Este 22 Sudeste 0 -- -- 77
2021-02-27 18:00:00 13.2 4 Nordeste 12 Nordeste 0 -- -- 70
2021-02-27 17:00:00 13.6 7 Nordeste 18 Nordeste 0 -- -- 68
2021-02-27 16:00:00 13.8 3 Este 8 Nordeste 0 -- -- 68
2021-02-27 15:00:00 13.5 3 Este 14 Sudeste 0 -- -- 66
2021-02-27 14:00:00 13.4 7 Sudeste 14 Este 0 -- -- 71
2021-02-27 13:00:00 12.2 10 Sudeste 22 Sudeste 0 -- -- 75
2021-02-27 12:00:00 12.5 12 Sudeste 27 Sudeste 0 -- -- 75
2021-02-27 11:00:00 11.5 15 Sudeste 24 Sudeste 0 -- -- 73
2021-02-27 10:00:00 10.6 10 Sudeste 18 Sudeste 0 -- -- 76
2021-02-27 09:00:00 7.5 3 Sudeste 13 Sudeste 0 -- -- 93
2021-02-27 08:00:00 6.3 4 Sur 9 Sudeste 0 -- -- 95
2021-02-27 07:00:00 6.7 4 Sudeste 13 Sur 0 -- -- 94
2021-02-27 06:00:00 5.9 0 Calma 8 Sur 0 -- -- 94
2021-02-27 05:00:00 6.7 4 Sur 8 Sudeste 0 -- -- 93
2021-02-27 04:00:00 6.8 2 Sur 5 Sur 0 -- -- 92
2021-02-27 03:00:00 6.8 0 Calma 5 Sudoeste 0 -- -- 91
2021-02-27 02:00:00 7.4 3 Oeste 6 Oeste 0 -- -- 89
2021-02-27 01:00:00 8.2 5 Noroeste 10 Noroeste 0 -- -- 90
2021-02-27 00:00:00 8.5 5 Oeste 8 Noroeste 0 -- -- 89
2021-02-26 23:00:00 8.9 6 Oeste 9 Noroeste 0 -- -- 86
2021-02-26 22:00:00 9.5 6 Noroeste 8 Noroeste 0 -- -- 85
2021-02-26 21:00:00 10 5 Oeste 9 Noroeste 0 -- -- 84
2021-02-26 20:00:00 10.2 4 Oeste 6 Oeste 0 -- -- 82
2021-02-26 19:00:00 12 0 Calma 16 Este 0 -- -- 73
2021-02-26 18:00:00 13.1 9 Este 15 Este 0 -- -- 69
2021-02-26 17:00:00 13.9 10 Este 20 Este 0 -- -- 68
2021-02-26 16:00:00 14.4 8 Sudeste 17 Sudeste 0 -- -- 68
2021-02-26 15:00:00 13.8 8 Este 18 Este 0 -- -- 67
2021-02-26 14:00:00 13.9 13 Sudeste 26 Sudeste 0 -- -- 63
2021-02-26 13:00:00 13.1 13 Sudeste 26 Sudeste 0 -- -- 67
2021-02-26 12:00:00 12.1 16 Sudeste 27 Sudeste 0 -- -- 71
2021-02-26 11:00:00 11.6 9 Sudeste 21 Sudeste 0 -- -- 79
2021-02-26 10:00:00 9.9 8 Sudeste 13 Sudeste 0 -- -- 86
2021-02-26 09:00:00 8.9 5 Sur 11 Sudeste 0.2 -- -- 92
2021-02-26 08:00:00 8.4 4 Sudeste 9 Sudeste 0 -- -- 90
2021-02-26 07:00:00 8.6 6 Sudeste 15 Sudeste 0 -- -- 89
2021-02-26 06:00:00 8.9 10 Sudeste 18 Sudeste 0 -- -- 89
2021-02-26 05:00:00 8.6 10 Sudeste 17 Sudeste 0 -- -- 88
2021-02-26 04:00:00 8.6 7 Sudeste 14 Sudeste 0 -- -- 86
2021-02-26 03:00:00 8.1 8 Sudeste 17 Sudeste 0 -- -- 89
2021-02-26 02:00:00 8 8 Sudeste 20 Sudeste 0 -- -- 89
2021-02-26 01:00:00 8.1 10 Sudeste 19 Este 0 -- -- 87
2021-02-26 00:00:00 8.4 12 Sudeste 19 Sudeste 0 -- -- 87
2021-02-25 23:00:00 8.6 3 Sudeste 17 Sudeste 0 -- -- 91
2021-02-25 22:00:00 9.6 9 Sudeste 19 Sur 0 -- -- 91
2021-02-25 21:00:00 9.5 6 Sudeste 14 Sudeste 0 -- -- 91
2021-02-25 20:00:00 10 7 Sudeste 13 Sudeste 0 -- -- 90
2021-02-25 19:00:00 10.9 3 Sudeste 13 Sudeste 0 -- -- 86
2021-02-25 18:00:00 11.8 6 Sudeste 15 Sudeste 0 -- -- 83
2021-02-25 17:00:00 12 9 Sudeste 17 Sudeste 0 -- -- 78
2021-02-25 16:00:00 12.4 9 Sudeste 23 Sudeste 0 -- -- 79
2021-02-25 15:00:00 12.7 10 Sudeste 21 Sudeste 0 -- -- 77
2021-02-25 14:00:00 12.5 13 Sudeste 23 Sudeste 0 -- -- 77
2021-02-25 13:00:00 11.9 14 Sudeste 24 Sudeste 0 -- -- 79
2021-02-25 12:00:00 10.6 14 Sudeste 24 Sudeste 0 -- -- 84
2021-02-25 11:00:00 9.8 10 Sudeste 17 Sudeste 0 -- -- 86
2021-02-25 10:00:00 8.3 7 Sudeste 14 Sur 0 -- -- 92
2021-02-25 09:00:00 7.2 8 Sur 15 Sudeste 0 -- -- 96
2021-02-25 08:00:00 6.5 9 Sur 17 Sur 0 -- -- 96
2021-02-25 07:00:00 6 8 Sudeste 12 Sur 0 -- -- 97
2021-02-25 06:00:00 5.4 0 Calma 10 Sudeste 0 -- -- 95
2021-02-25 05:00:00 6 5 Este 25 Sudeste 0 -- -- 92
2021-02-25 04:00:00 7.2 13 Sudeste 27 Sudeste 0 -- -- 89
2021-02-25 03:00:00 7 12 Sudeste 24 Sudeste 0 -- -- 92
2021-02-25 02:00:00 7.3 12 Sudeste 22 Sudeste 0 -- -- 90
2021-02-25 01:00:00 7.5 11 Sudeste 21 Sudeste 0 -- -- 88
2021-02-25 00:00:00 7.8 10 Sudeste 21 Sudeste 0 -- -- 85
2021-02-24 23:00:00 8 8 Sudeste 21 Sudeste 0 -- -- 85
2021-02-24 22:00:00 8.4 12 Sudeste 27 Sudeste 0 -- -- 87
2021-02-24 21:00:00 9 16 Sudeste 29 Sudeste 0 -- -- 85
2021-02-24 20:00:00 9.8 18 Sudeste 40 Sudeste 0 -- -- 84
2021-02-24 19:00:00 10.9 22 Sudeste 42 Sudeste 0 -- -- 79
2021-02-24 18:00:00 12.6 19 Sudeste 37 Sudeste 0 -- -- 74
2021-02-24 17:00:00 13.5 22 Sudeste 37 Sudeste 0 -- -- 70
2021-02-24 16:00:00 13.7 19 Sudeste 40 Sudeste 0 -- -- 70
2021-02-24 15:00:00 13.7 18 Sudeste 41 Sudeste 0 -- -- 71
2021-02-24 14:00:00 13.1 25 Sudeste 44 Sudeste 0 -- -- 73
2021-02-24 13:00:00 12.9 22 Sudeste 43 Sudeste 0 -- -- 71
2021-02-24 12:00:00 11.6 26 Sudeste 43 Sudeste 0 -- -- 73
2021-02-24 11:00:00 10.7 26 Sudeste 47 Sur 0 -- -- 75
2021-02-24 10:00:00 9.6 26 Sudeste 48 Sudeste 0 -- -- 79
2021-02-24 09:00:00 7.9 17 Sudeste 33 Sudeste 0 -- -- 86
2021-02-24 08:00:00 6.8 17 Sudeste 35 Sudeste 0 -- -- 91
2021-02-24 07:00:00 6.7 19 Sudeste 40 Sudeste 0 -- -- 92
2021-02-24 06:00:00 6.7 19 Sudeste 40 Sudeste 0 -- -- 92
2021-02-24 05:00:00 6.7 19 Sudeste 38 Sudeste 0 -- -- 92
2021-02-24 04:00:00 6.8 23 Sudeste 41 Sudeste 0 -- -- 90
2021-02-24 03:00:00 6.4 21 Sudeste 36 Sudeste 0 -- -- 88
2021-02-24 02:00:00 6.5 14 Sudeste 27 Sudeste 0 -- -- 82
2021-02-24 01:00:00 6.4 6 Sudeste 15 Sudeste 0 -- -- 78
2021-02-24 00:00:00 6.5 5 Sudeste 14 Sudeste 0 -- -- 77
2021-02-23 23:00:00 6.9 5 Sudeste 13 Sudeste 0 -- -- 76
2021-02-23 22:00:00 7 7 Sudeste 15 Sudeste 0 -- -- 73
2021-02-23 21:00:00 6.6 6 Sur 10 Sudeste 0 -- -- 69
2021-02-23 20:00:00 7.9 4 Sur 12 Sudeste 0 -- -- 66
2021-02-23 19:00:00 10.4 8 Sudeste 25 Sudeste 0 -- -- 57
2021-02-23 18:00:00 12.6 12 Sudeste 26 Sudeste 0 -- -- 53
2021-02-23 17:00:00 13.3 13 Sudeste 31 Este 0 -- -- 51
2021-02-23 16:00:00 13.5 13 Sudeste 29 Este 0 -- -- 52
2021-02-23 15:00:00 13.3 17 Sudeste 33 Sudeste 0 -- -- 50
2021-02-23 14:00:00 12.9 16 Este 33 Este 0 -- -- 50
2021-02-23 13:00:00 12.3 14 Sudeste 27 Este 0 -- -- 52
2021-02-23 12:00:00 11.1 13 Sudeste 24 Sudeste 0 -- -- 59
2021-02-23 11:00:00 10.2 13 Sudeste 29 Este 0 -- -- 65
2021-02-23 10:00:00 9.1 11 Este 16 Este 0 -- -- 78
2021-02-23 09:00:00 6.6 5 Sudeste 12 Sudeste 0 -- -- 89
2021-02-23 08:00:00 4.9 6 Sudeste 11 Sudeste 0 -- -- 91
2021-02-23 07:00:00 5 7 Sur 10 Sudeste 0 -- -- 90
2021-02-23 06:00:00 5.3 7 Sur 9 Sudeste 0 -- -- 89
2021-02-23 05:00:00 5.1 7 Sur 9 Sur 0 -- -- 87
2021-02-23 04:00:00 5 6 Sur 8 Sur 0 -- -- 89
2021-02-23 03:00:00 5.4 7 Sur 12 Sudoeste 0 -- -- 89
2021-02-23 02:00:00 5.2 8 Sur 13 Sudoeste 0 -- -- 90
2021-02-23 01:00:00 5.4 10 Sudoeste 12 Sudoeste 0 -- -- 92
2021-02-23 00:00:00 5.7 4 Sur 13 Sudoeste 0 -- -- 91
2021-02-22 23:00:00 5.2 3 Sur 10 Sudoeste 0 -- -- 89
2021-02-22 22:00:00 6.6 9 Sudoeste 12 Sudoeste 0 -- -- 87
2021-02-22 21:00:00 6.7 6 Sudoeste 11 Sudoeste 0 -- -- 84
2021-02-22 20:00:00 6.2 3 Oeste 5 Sudoeste 0 -- -- 84
2021-02-22 19:00:00 8.9 3 Oeste 12 Noroeste 0 -- -- 72
2021-02-22 18:00:00 10.1 6 Oeste 18 Noroeste 0 -- -- 64
2021-02-22 17:00:00 11 6 Noroeste 19 Oeste 0 -- -- 58
2021-02-22 16:00:00 10.4 8 Noroeste 22 Noroeste 0 -- -- 62
2021-02-22 15:00:00 10.9 9 Noroeste 20 Noroeste 0 -- -- 64
2021-02-22 14:00:00 10.3 12 Noroeste 24 Noroeste 0 -- -- 68
2021-02-22 13:00:00 9.8 9 Noroeste 23 Oeste 0 -- -- 72
2021-02-22 12:00:00 8.4 9 Noroeste 21 Noroeste 0 -- -- 71
2021-02-22 11:00:00 7.1 13 Noroeste 22 Noroeste 0 -- -- 80
2021-02-22 10:00:00 5.8 9 Oeste 20 Oeste 0 -- -- 90
2021-02-22 09:00:00 4 9 Noroeste 21 Oeste 0 -- -- 97
2021-02-22 08:00:00 3.2 11 Noroeste 22 Oeste 0 -- -- 96
2021-02-22 07:00:00 3.2 12 Oeste 26 Oeste 0 -- -- 97
2021-02-22 06:00:00 3.3 16 Oeste 33 Oeste 0 -- -- 96
2021-02-22 05:00:00 3.3 17 Oeste 33 Noroeste 0 -- -- 97
2021-02-22 04:00:00 3.4 16 Oeste 35 Oeste 0 -- -- 97
2021-02-22 03:00:00 3.6 17 Oeste 30 Oeste 0 -- -- 97
2021-02-22 02:00:00 4.1 16 Noroeste 30 Oeste 0 -- -- 97
2021-02-22 01:00:00 4.1 19 Oeste 32 Noroeste 0 -- -- 96
2021-02-22 00:00:00 4.4 15 Oeste 33 Noroeste 0 -- -- 94
2021-02-21 23:00:00 4.9 16 Oeste 35 Oeste 0 -- -- 93
2021-02-21 22:00:00 5.2 17 Oeste 31 Oeste 0 -- -- 91
2021-02-21 21:00:00 5.8 14 Oeste 31 Noroeste 0 -- -- 88
2021-02-21 20:00:00 6.1 14 Oeste 26 Oeste 0 -- -- 84
2021-02-21 19:00:00 6.8 12 Noroeste 35 Noroeste 0 -- -- 83
2021-02-21 18:00:00 7.2 16 Noroeste 40 Oeste 0 -- -- 82
2021-02-21 17:00:00 6.5 17 Noroeste 34 Oeste 0 -- -- 87
2021-02-21 16:00:00 6.1 17 Noroeste 36 Noroeste 0 -- -- 95
2021-02-21 15:00:00 5.4 18 Noroeste 33 Noroeste 0 -- -- 94
2021-02-21 14:00:00 5.9 13 Noroeste 22 Noroeste 0 -- -- 91
2021-02-21 13:00:00 4.9 10 Noroeste 25 Noroeste 0.6 -- -- 97
2021-02-21 12:00:00 4 11 Noroeste 31 Noroeste 1.8 -- -- 98
2021-02-21 11:00:00 4.6 13 Noroeste 30 Noroeste 4 -- -- 97
2021-02-21 10:00:00 5.2 12 Noroeste 31 Noroeste 6.6 -- -- 98
2021-02-21 09:00:00 6.5 13 Noroeste 29 Sur 3.4 -- -- 93
2021-02-21 08:00:00 7.9 10 Sur 43 Sudoeste 2.8 -- -- 96
2021-02-21 07:00:00 8.2 17 Sur 58 Sur 3.8 -- -- 95
2021-02-21 06:00:00 8.4 21 Sur 69 Sur 0.2 -- -- 93
2021-02-21 05:00:00 9.5 25 Sur 66 Sur 0 -- -- 83
2021-02-21 04:00:00 10.1 23 Sur 52 Sudoeste 0 -- -- 78
2021-02-21 03:00:00 10 22 Sur 63 Sur 0 -- -- 72
2021-02-21 02:00:00 10 26 Sur 63 Sudeste 0 -- -- 66
2021-02-21 01:00:00 9.2 22 Sur 45 Sudeste 0 -- -- 75
2021-02-21 00:00:00 9 22 Sur 59 Sur 0 -- -- 82
2021-02-20 23:00:00 9.4 23 Sur 49 Sur 0 -- -- 83
2021-02-20 22:00:00 10 24 Sur 50 Sur 0 -- -- 82
2021-02-20 21:00:00 10.4 23 Sur 42 Sur 0 -- -- 82
2021-02-20 20:00:00 10.3 17 Sur 40 Sudeste 0 -- -- 79
2021-02-20 19:00:00 11.7 23 Sur 44 Sudeste 0 -- -- 70
2021-02-20 18:00:00 12.7 22 Sur 41 Sudeste 0 -- -- 60
2021-02-20 17:00:00 13.9 21 Sur 50 Sudeste 0 -- -- 55
2021-02-20 16:00:00 13.3 24 Sur 52 Sudeste 0 -- -- 59
2021-02-20 15:00:00 12.3 28 Sur 55 Sur 0 -- -- 67
2021-02-20 14:00:00 11.1 32 Sur 54 Sur 0 -- -- 68
2021-02-20 13:00:00 11.5 29 Sur 59 Sur 0 -- -- 63
2021-02-20 12:00:00 9.8 27 Sur 57 Sur 0 -- -- 77
2021-02-20 11:00:00 9.4 33 Sur 59 Sur 0 -- -- 80
2021-02-20 10:00:00 8.5 32 Sur 61 Sudeste 0 -- -- 89
2021-02-20 09:00:00 8.1 31 Sur 57 Sur 0 -- -- 91
2021-02-20 08:00:00 7.8 31 Sur 55 Sur 0 -- -- 92
2021-02-20 07:00:00 7.8 27 Sur 53 Sur 0 -- -- 93
2021-02-20 06:00:00 8.1 22 Sur 56 Sudeste 0 -- -- 94
2021-02-20 05:00:00 8.2 26 Sur 53 Sur 0 -- -- 94
2021-02-20 04:00:00 8.2 33 Sur 50 Sur 0 -- -- 92
2021-02-20 03:00:00 8.1 22 Sur 47 Sur 0 -- -- 93
2021-02-20 02:00:00 8.3 21 Sur 44 Sur 0 -- -- 96
2021-02-20 01:00:00 8.5 26 Sur 48 Sudeste 0 -- -- 92
2021-02-20 00:00:00 9 29 Sur 53 Sur 0 -- -- 91
2021-02-19 23:00:00 9.3 19 Sur 46 Sudeste 0 -- -- 93
2021-02-19 22:00:00 9.6 24 Sur 42 Sur 0 -- -- 91
2021-02-19 21:00:00 9.5 21 Sur 34 Sur 0 -- -- 85
2021-02-19 20:00:00 9.2 12 Sur 21 Sur 0 -- -- 84
2021-02-19 19:00:00 10.3 8 Sur 20 Sur 0 -- -- 83
2021-02-19 18:00:00 11.7 11 Sur 22 Sur 0 -- -- 74
2021-02-19 17:00:00 12.7 13 Sur 23 Sudeste 0 -- -- 75
2021-02-19 16:00:00 14 15 Sur 27 Sudoeste 0 -- -- 65
2021-02-19 15:00:00 14.2 16 Sur 32 Sur 0 -- -- 68
2021-02-19 14:00:00 14.2 14 Sur 35 Sudeste 0 -- -- 66
2021-02-19 13:00:00 13.1 20 Sudeste 31 Sudeste 0 -- -- 71
2021-02-19 12:00:00 12.5 18 Sur 30 Sur 0 -- -- 69
2021-02-19 11:00:00 11.2 14 Sudeste 27 Sudeste 0 -- -- 72
2021-02-19 10:00:00 11.4 9 Sudeste 21 Sur 0 -- -- 64
2021-02-19 09:00:00 9.5 10 Sur 23 Sur 0.2 -- -- 54
2021-02-19 08:00:00 5.3 6 Sudeste 16 Sudeste 0 -- -- 99
2021-02-19 07:00:00 5.9 8 Sudeste 17 Sudeste 0 -- -- 100
2021-02-19 06:00:00 6.3 7 Sudeste 15 Sudeste 0 -- -- 99
2021-02-19 05:00:00 6.7 7 Sudeste 11 Sur 0 -- -- 98
2021-02-19 04:00:00 6.5 7 Sudeste 14 Sur 0 -- -- 91
2021-02-19 03:00:00 6.2 3 Sur 13 Sudoeste 0 -- -- 93
2021-02-19 02:00:00 6.3 6 Sur 13 Sudoeste 0 -- -- 98
2021-02-19 01:00:00 7.5 5 Sur 12 Sur 0 -- -- 98
2021-02-19 00:00:00 8.2 9 Sur 15 Sur 0 -- -- 98
2021-02-18 23:00:00 9 10 Sur 16 Sudeste 0 -- -- 97
2021-02-18 22:00:00 9.6 8 Sur 17 Sur 0 -- -- 95
2021-02-18 21:00:00 10 5 Sudeste 12 Sur 0 -- -- 93
2021-02-18 20:00:00 10.9 0 Calma 15 Sur 0 -- -- 85
2021-02-18 19:00:00 12.8 7 Sur 17 Sur 0 -- -- 77
2021-02-18 18:00:00 15 10 Sur 22 Sur 0 -- -- 63
2021-02-18 17:00:00 16.5 11 Sudoeste 24 Sudoeste 0 -- -- 51
2021-02-18 16:00:00 17 9 Sudoeste 23 Sudoeste 0 -- -- 43
2021-02-18 15:00:00 17.1 7 Oeste 27 Sudoeste 0 -- -- 41
2021-02-18 14:00:00 17.1 8 Oeste 19 Oeste 0 -- -- 34
2021-02-18 13:00:00 16.4 8 Oeste 16 Sudoeste 0 -- -- 35
2021-02-18 12:00:00 15.6 9 Oeste 18 Sudoeste 0 -- -- 39
2021-02-18 11:00:00 13.5 4 Noroeste 13 Sudoeste 0 -- -- 47
2021-02-18 10:00:00 12.3 6 Oeste 10 Sudoeste 0 -- -- 46
2021-02-18 09:00:00 9.5 2 Norte 13 Sudoeste 0 -- -- 48
2021-02-18 08:00:00 8.3 7 Sur 12 Sudoeste 0 -- -- 51
2021-02-18 07:00:00 8.9 10 Sudoeste 11 Oeste 0 -- -- 48
2021-02-18 06:00:00 8.2 7 Sudoeste 9 Oeste 0 -- -- 55
2021-02-18 05:00:00 9.2 8 Oeste 10 Oeste 0 -- -- 48
2021-02-18 04:00:00 9 6 Oeste 10 Sudoeste 0 -- -- 51
2021-02-18 03:00:00 9.4 5 Oeste 12 Sudoeste 0 -- -- 52
2021-02-18 02:00:00 10.2 7 Sudoeste 12 Oeste 0 -- -- 62
2021-02-18 01:00:00 10.3 6 Sudoeste 10 Oeste 0 -- -- 54
2021-02-18 00:00:00 10.7 8 Sudoeste 13 Oeste 0 -- -- 51
2021-02-17 23:00:00 10.9 10 Sudoeste 13 Sudoeste 0 -- -- 60
2021-02-17 22:00:00 11.2 8 Sudoeste 12 Oeste 0 -- -- 66
2021-02-17 21:00:00 11.4 7 Sudoeste 12 Sudoeste 0 -- -- 63
2021-02-17 20:00:00 12.2 10 Sudoeste 12 Sudoeste 0 -- -- 59
2021-02-17 19:00:00 14.7 7 Sudoeste 13 Sur 0 -- -- 52
2021-02-17 18:00:00 17.9 7 Sur 16 Sudoeste 0 -- -- 41
2021-02-17 17:00:00 18.8 9 Sudoeste 22 Sur 0 -- -- 40
2021-02-17 16:00:00 19.7 7 Sudoeste 28 Sudoeste 0 -- -- 38
2021-02-17 15:00:00 19.4 13 Sudoeste 24 Sur 0 -- -- 37
2021-02-17 14:00:00 19 12 Sudoeste 24 Sur 0 -- -- 37
2021-02-17 13:00:00 18.6 13 Sudoeste 23 Sudoeste 0 -- -- 36
2021-02-17 12:00:00 17.6 12 Sur 20 Sudoeste 0 -- -- 35
2021-02-17 11:00:00 16.1 13 Sur 22 Sur 0 -- -- 39
2021-02-17 10:00:00 14 8 Sur 16 Sur 0 -- -- 48
2021-02-17 09:00:00 8.6 0 Calma 9 Sudoeste 0 -- -- 80
2021-02-17 08:00:00 8.3 9 Sudoeste 15 Oeste 0 -- -- 66
2021-02-17 07:00:00 8.1 4 Sudoeste 12 Sudoeste 0 -- -- 65
2021-02-17 06:00:00 7.5 8 Sudoeste 15 Sudoeste 0 -- -- 72
2021-02-17 05:00:00 7 4 Sudoeste 8 Sur 0 -- -- 82
2021-02-17 04:00:00 6 0 Calma 7 Sur 0 -- -- 97
2021-02-17 03:00:00 6.6 0 Calma 5 Oeste 0 -- -- 95
2021-02-17 02:00:00 7.9 4 Oeste 10 Sudoeste 0 -- -- 93
2021-02-17 01:00:00 8.9 6 Oeste 9 Oeste 0 -- -- 91
2021-02-17 00:00:00 9.3 8 Oeste 11 Oeste 0 -- -- 91
2021-02-16 23:00:00 9.5 6 Oeste 9 Sudoeste 0 -- -- 87
2021-02-16 22:00:00 9.9 9 Oeste 13 Sur 0 -- -- 83
2021-02-16 21:00:00 10.5 8 Sur 13 Sur 0 -- -- 82
2021-02-16 20:00:00 11.4 6 Sur 12 Sudoeste 0 -- -- 77
2021-02-16 19:00:00 13.8 7 Sudoeste 12 Sudoeste 0 -- -- 68
2021-02-16 18:00:00 16.5 7 Sudoeste 15 Sudoeste 0 -- -- 58
2021-02-16 17:00:00 17.6 9 Sudoeste 14 Sudoeste 0 -- -- 52
2021-02-16 16:00:00 18 4 Sudoeste 18 Este 0 -- -- 50
2021-02-16 15:00:00 17.6 13 Este 22 Este 0 -- -- 56
2021-02-16 14:00:00 17.4 7 Sudeste 15 Sur 0 -- -- 54
2021-02-16 13:00:00 16.3 11 Sudoeste 19 Sudoeste 0 -- -- 54
2021-02-16 12:00:00 14.9 13 Sur 34 Sudoeste 0 -- -- 55
2021-02-16 11:00:00 13.8 20 Sur 37 Sur 0 -- -- 54
2021-02-16 10:00:00 12.8 21 Sur 36 Sudoeste 0 -- -- 52
2021-02-16 09:00:00 11.8 22 Sur 39 Sur 0 -- -- 49
2021-02-16 08:00:00 9.9 19 Sur 28 Sur 0 -- -- 50
2021-02-16 07:00:00 9.5 17 Sur 25 Sur 0 -- -- 55
2021-02-16 06:00:00 9.4 15 Sur 25 Sudeste 0 -- -- 57
2021-02-16 05:00:00 10.1 15 Sudeste 27 Sur 0 -- -- 55
2021-02-16 04:00:00 7.9 14 Sur 26 Sur 0 -- -- 76
2021-02-16 03:00:00 7.7 15 Sur 25 Sur 0 -- -- 76
2021-02-16 02:00:00 9 15 Sur 27 Sudeste 0 -- -- 71
2021-02-16 01:00:00 10.1 15 Sudeste 30 Sudeste 0 -- -- 65
2021-02-16 00:00:00 10.4 21 Sudeste 36 Sudeste 0 -- -- 66
2021-02-15 23:00:00 11 25 Sudeste 38 Sudeste 0 -- -- 62
2021-02-15 22:00:00 10.2 23 Sudeste 40 Sudeste 0 -- -- 66
2021-02-15 21:00:00 10.4 22 Sudeste 38 Sudeste 0 -- -- 68
2021-02-15 20:00:00 11.2 24 Sudeste 40 Sudeste 0 -- -- 66
2021-02-15 19:00:00 11.6 23 Sudeste 37 Sudeste 0 -- -- 70
2021-02-15 18:00:00 13.5 21 Sudeste 35 Sudeste 0 -- -- 64
2021-02-15 17:00:00 14.7 20 Sudeste 33 Sudeste 0 -- -- 64
2021-02-15 16:00:00 15 16 Sudeste 32 Este 0 -- -- 63
2021-02-15 15:00:00 15.3 17 Sudeste 29 Sudeste 0 -- -- 59
2021-02-15 14:00:00 14.8 17 Sudeste 36 Sudeste 0 -- -- 63
2021-02-15 13:00:00 13.7 23 Sudeste 37 Sur 0 -- -- 65
2021-02-15 12:00:00 12.9 21 Sudeste 36 Sudeste 0 -- -- 65
2021-02-15 11:00:00 11.2 21 Sudeste 34 Sudeste 0 -- -- 70
2021-02-15 10:00:00 9.6 21 Sudeste 31 Sudeste 0 -- -- 73
2021-02-15 09:00:00 7.1 20 Sudeste 31 Sudeste 0 -- -- 81
2021-02-15 08:00:00 6.5 20 Sudeste 33 Sudeste 0 -- -- 82
2021-02-15 07:00:00 6.5 19 Sudeste 33 Sudeste 0 -- -- 80
2021-02-15 06:00:00 6.7 21 Sudeste 35 Sudeste 0 -- -- 79
2021-02-15 05:00:00 6.7 18 Sudeste 32 Sudeste 0 -- -- 79
2021-02-15 04:00:00 7.5 25 Sur 34 Sudeste 0 -- -- 75
2021-02-15 03:00:00 7.8 23 Sur 37 Sur 0 -- -- 75
2021-02-15 02:00:00 8.5 21 Sur 34 Sur 0 -- -- 70
2021-02-15 01:00:00 9.2 18 Sudeste 32 Sur 0 -- -- 67
2021-02-15 00:00:00 10.4 21 Sudeste 31 Sudeste 0 -- -- 61
2021-02-14 23:00:00 11 19 Sur 27 Sur 0 -- -- 56
2021-02-14 22:00:00 10.9 15 Sudeste 24 Sudeste 0 -- -- 60
2021-02-14 21:00:00 11.4 15 Sudeste 24 Sudeste 0 -- -- 69
2021-02-14 20:00:00 11.9 13 Sudeste 22 Sur 0 -- -- 61
2021-02-14 19:00:00 13.2 6 Sudeste 14 Sudeste 0 -- -- 54
2021-02-14 18:00:00 16.3 6 Sudeste 17 Sudeste 0.2 -- -- 54
2021-02-14 17:00:00 17.3 9 Sudeste 17 Sur 0 -- -- 49
2021-02-14 16:00:00 17.9 9 Sudeste 17 Sudeste 0 -- -- 46
2021-02-14 15:00:00 17.3 7 Sudeste 18 Sudeste 0 -- -- 48
2021-02-14 14:00:00 17 10 Sudeste 19 Sudeste 0 -- -- 51
2021-02-14 13:00:00 16.5 11 Sudeste 19 Sur 0 -- -- 54
2021-02-14 12:00:00 15.9 12 Sudeste 18 Sur 0 -- -- 53
2021-02-14 11:00:00 15 11 Sudeste 17 Sudeste 0 -- -- 52
2021-02-14 10:00:00 13.2 9 Sudeste 16 Sudeste 0 -- -- 56
2021-02-14 09:00:00 10 10 Sudeste 15 Sudeste 0 -- -- 64
2021-02-14 08:00:00 8.6 9 Sudeste 12 Sudeste 0 -- -- 63
2021-02-14 07:00:00 8.6 8 Sur 13 Sudeste 0 -- -- 64
2021-02-14 06:00:00 9.2 9 Sudeste 14 Sudeste 0 -- -- 62
2021-02-14 05:00:00 9.3 10 Sur 13 Sur 0 -- -- 63
2021-02-14 04:00:00 8.8 4 Este 13 Sudeste 0 -- -- 61
2021-02-14 03:00:00 7.5 5 Sur 8 Sur 0 -- -- 60
2021-02-14 02:00:00 6.7 2 Sur 5 Sudoeste 0 -- -- 63
2021-02-14 01:00:00 7 0 Calma -- -- 0 -- -- 45
2021-02-14 00:00:00 6.6 0 Calma 3 Sudoeste 0 -- -- 80
2021-02-13 23:00:00 7.9 0 Calma 10 Noroeste 0 -- -- 75
2021-02-13 22:00:00 8.7 6 Noroeste 10 Noroeste 0 -- -- 70
2021-02-13 21:00:00 9.4 6 Noroeste 12 Nordeste 0 -- -- 73
2021-02-13 20:00:00 10.2 5 Noroeste 9 Noroeste 0 -- -- 62
2021-02-13 19:00:00 11.7 4 Noroeste 6 Noroeste 0 -- -- 56
2021-02-13 18:00:00 14.8 5 Norte 10 Nordeste 0 -- -- 44
2021-02-13 17:00:00 15.3 5 Norte 17 Noroeste 0 -- -- 33
2021-02-13 16:00:00 15.7 10 Noroeste 17 Noroeste 0 -- -- 26
2021-02-13 15:00:00 15.3 7 Noroeste 19 Norte 0 -- -- 32
2021-02-13 14:00:00 14.6 10 Norte 17 Norte 0 -- -- 29
2021-02-13 13:00:00 15.1 10 Noroeste 18 Noroeste 0 -- -- 28
2021-02-13 08:00:00 -- -- -- -- -- -- -- -- --
2021-02-13 07:00:00 -- -- -- -- -- -- -- -- --
2021-02-13 06:00:00 6 9 Noroeste 14 Noroeste 0 -- -- 96
2021-02-13 05:00:00 6.5 8 Noroeste 14 Oeste 0 -- -- 95
2021-02-13 04:00:00 6.5 7 Noroeste 11 Noroeste 0 -- -- 94
2021-02-13 03:00:00 6.4 6 Noroeste 11 Noroeste 0 -- -- 94
2021-02-13 02:00:00 6.6 5 Noroeste 10 Noroeste 0 -- -- 94
2021-02-13 01:00:00 7.2 6 Noroeste 12 Noroeste 0 -- -- 93
2021-02-13 00:00:00 7 6 Noroeste 13 Noroeste 0 -- -- 93
2021-02-12 23:00:00 7.2 9 Noroeste 13 Noroeste 0 -- -- 93
2021-02-12 22:00:00 7.3 4 Noroeste 12 Noroeste 0 -- -- 91
2021-02-12 21:00:00 7.8 7 Oeste 11 Oeste 0 -- -- 90
2021-02-12 20:00:00 8.7 5 Oeste 9 Oeste 0 -- -- 88
2021-02-12 19:00:00 10.2 5 Noroeste 15 Noroeste 0 -- -- 81
2021-02-12 18:00:00 12.1 8 Noroeste 20 Noroeste 0 -- -- 74
2021-02-12 17:00:00 12.5 11 Noroeste 24 Noroeste 0 -- -- 70
2021-02-12 16:00:00 12.3 11 Noroeste 29 Oeste 0 -- -- 69
2021-02-12 15:00:00 12.1 13 Noroeste 32 Noroeste 0 -- -- 74
2021-02-12 14:00:00 11 18 Noroeste 30 Noroeste 0 -- -- 76
2021-02-12 13:00:00 10.4 18 Noroeste 32 Noroeste 0 -- -- 79
2021-02-12 12:00:00 9.7 16 Noroeste 28 Noroeste 0 -- -- 89
2021-02-12 11:00:00 9 13 Noroeste 30 Oeste 0 -- -- 95
2021-02-12 10:00:00 8 13 Noroeste 26 Oeste 0 -- -- 99
2021-02-12 09:00:00 7.5 15 Noroeste 35 Oeste 0 -- -- 100
2021-02-12 08:00:00 7.6 9 Oeste 22 Oeste 0 -- -- 99
2021-02-12 07:00:00 8.8 11 Oeste 33 Oeste 0 -- -- 99
2021-02-12 06:00:00 10 15 Noroeste 29 Oeste 0 -- -- 99
2021-02-12 05:00:00 10.5 7 Oeste 19 Oeste 0 -- -- 99
2021-02-12 04:00:00 10.5 8 Sudoeste 22 Sudoeste 0 -- -- 97
2021-02-12 03:00:00 10.5 6 Sudoeste 25 Sudoeste 0 -- -- 98
2021-02-12 02:00:00 10.3 13 Sudoeste 27 Sudoeste 0 -- -- 98
2021-02-12 01:00:00 10.3 12 Sudoeste 20 Sudoeste 0 -- -- 98
2021-02-12 00:00:00 10.3 12 Sudoeste 24 Sudoeste 0 -- -- 99
2021-02-11 23:00:00 10.2 9 Sudoeste 24 Sur 0 -- -- 98
2021-02-11 22:00:00 10.5 10 Sur 20 Sur 0 -- -- 99
2021-02-11 21:00:00 10.6 6 Sur 13 Sur 0 -- -- 97
2021-02-11 20:00:00 10.5 0 Calma 9 Sudoeste 0 -- -- 94
2021-02-11 19:00:00 11.1 4 Sur 13 Sur 0 -- -- 92
2021-02-11 18:00:00 11.7 8 Sudoeste 13 Sudoeste 0 -- -- 89
2021-02-11 17:00:00 12.2 6 Sudoeste 18 Sudoeste 0 -- -- 90
2021-02-11 16:00:00 12.2 10 Sudoeste 22 Sudoeste 0 -- -- 92
2021-02-11 15:00:00 12.1 7 Sur 16 Sur 0 -- -- 95
2021-02-11 14:00:00 11.6 7 Sudoeste 17 Sudoeste 0 -- -- 97
2021-02-11 13:00:00 11.7 10 Sudoeste 18 Sudoeste 0 -- -- 99
2021-02-11 12:00:00 11.2 9 Sudoeste 17 Sudoeste 0 -- -- 100
2021-02-11 11:00:00 10.8 8 Sudeste 16 Sudeste 0 -- -- 100
2021-02-11 10:00:00 10.2 7 Sur 23 Sur 0 -- -- 100
2021-02-11 09:00:00 9.6 4 Sudeste 21 Sudoeste 0 -- -- 100
2021-02-11 08:00:00 9 8 Sudoeste 19 Sur 0 -- -- 100
2021-02-11 07:00:00 8.8 4 Sudeste 8 Sudeste 0 -- -- 100
2021-02-11 06:00:00 9.2 0 Calma 9 Sudoeste 0 -- -- 100
2021-02-11 05:00:00 9.2 3 Sur 10 Oeste 0 -- -- 100
2021-02-11 04:00:00 9.7 5 Oeste 14 Oeste 0 -- -- 100
2021-02-11 03:00:00 10.4 5 Oeste 14 Oeste 0 -- -- 100
2021-02-11 02:00:00 10.6 6 Noroeste 13 Noroeste 0 -- -- 100
2021-02-11 01:00:00 10.8 7 Oeste 17 Oeste 0 -- -- 100
2021-02-11 00:00:00 11.1 7 Oeste 16 Oeste 0 -- -- 100
2021-02-10 23:00:00 11.3 4 Sudoeste 15 Oeste 0.2 -- -- 100
2021-02-10 22:00:00 11.5 8 Oeste 19 Oeste 0 -- -- 100
2021-02-10 21:00:00 11.7 8 Oeste 19 Oeste 0 -- -- 100
2021-02-10 20:00:00 11.9 5 Oeste 19 Sudoeste 0.4 -- -- 100
2021-02-10 19:00:00 12.1 9 Oeste 21 Oeste 1 -- -- 100
2021-02-10 18:00:00 12.1 13 Oeste 30 Noroeste 0 -- -- 99
2021-02-10 17:00:00 12.2 13 Oeste 33 Oeste 0.2 -- -- 99
2021-02-10 16:00:00 12.2 15 Oeste 37 Oeste 0 -- -- 99
2021-02-10 15:00:00 11.9 19 Oeste 35 Oeste 0 -- -- 99
2021-02-10 14:00:00 11.7 14 Oeste 36 Oeste 0.2 -- -- 100
2021-02-10 13:00:00 11.7 17 Oeste 31 Oeste 0.2 -- -- 100
2021-02-10 12:00:00 11 13 Oeste 25 Oeste 0.2 -- -- 100
2021-02-10 11:00:00 10.3 9 Noroeste 31 Oeste 0.8 -- -- 100
2021-02-10 10:00:00 10.9 13 Oeste 38 Oeste 0.4 -- -- 99
2021-02-10 09:00:00 10.6 17 Oeste 42 Oeste 0.2 -- -- 99
2021-02-10 08:00:00 9.7 12 Oeste 35 Oeste 0.2 -- -- 99
2021-02-10 07:00:00 9.4 14 Oeste 30 Oeste 0.4 -- -- 99
2021-02-10 06:00:00 8.7 3 Sudoeste 16 Sudoeste 1.4 -- -- 99
2021-02-10 05:00:00 8.8 8 Sudoeste 28 Sudoeste 1.2 -- -- 97
2021-02-10 04:00:00 9 19 Sudoeste 45 Sudoeste 0.2 -- -- 95
2021-02-10 03:00:00 8.6 17 Oeste 43 Oeste 0 -- -- 92
2021-02-10 02:00:00 8.2 18 Oeste 39 Oeste 0 -- -- 91
2021-02-10 01:00:00 7.9 19 Oeste 48 Oeste 0 -- -- 87
2021-02-10 00:00:00 8.1 19 Oeste 43 Oeste 0 -- -- 89
2021-02-09 23:00:00 8.3 19 Oeste 41 Oeste 0 -- -- 91
2021-02-09 22:00:00 8.5 21 Oeste 40 Sudoeste 0 -- -- 91
2021-02-09 21:00:00 8.4 14 Oeste 41 Oeste 0 -- -- 93
2021-02-09 20:00:00 8.6 16 Oeste 41 Oeste 0 -- -- 94
2021-02-09 19:00:00 9 14 Oeste 36 Oeste 1.4 -- -- 95
2021-02-09 18:00:00 9.6 15 Sudoeste 41 Sudoeste 0.4 -- -- 95
2021-02-09 17:00:00 9.4 18 Sudoeste 48 Sudoeste 0.8 -- -- 91
2021-02-09 16:00:00 9.7 20 Sudoeste 58 Sudoeste 0 -- -- 93
2021-02-09 15:00:00 10.2 23 Sudoeste 55 Sudoeste 0.6 -- -- 90
2021-02-09 14:00:00 9.1 25 Sudoeste 55 Sudoeste 3 -- -- 98
2021-02-09 13:00:00 8.9 27 Sudoeste 54 Sudoeste 2.8 -- -- 97
2021-02-09 12:00:00 8.7 29 Sudoeste 54 Sudoeste 0.4 -- -- 98
2021-02-09 11:00:00 8.6 26 Sudoeste 61 Sur -- -- -- 95
2021-02-09 10:00:00 8.2 25 Sudoeste 52 Sudoeste -- -- -- 96
2021-02-09 09:00:00 8 17 Sudoeste 51 Sur -- -- -- 95
2021-02-09 08:00:00 7.6 19 Sudoeste 47 Sudoeste -- -- -- 97
2021-02-09 07:00:00 7.3 18 Sudoeste 37 Sudoeste -- -- -- 97
2021-02-09 06:00:00 7.5 14 Sudoeste 36 Sudoeste -- -- -- 96
2021-02-09 05:00:00 7.4 14 Sudoeste 38 Sur -- -- -- 95
2021-02-09 04:00:00 7.2 17 Sudoeste 38 Sudoeste -- -- -- 96
2021-02-09 03:00:00 7.2 17 Sudoeste 36 Sudoeste -- -- -- 97
2021-02-09 02:00:00 6.9 16 Sudoeste 32 Sudoeste -- -- -- 98
2021-02-09 01:00:00 6.7 11 Sudoeste 23 Sudoeste -- -- -- 96
2021-02-09 00:00:00 6.2 5 Oeste 17 Sudoeste -- -- -- 94
2021-02-08 23:00:00 6.3 6 Oeste 21 Oeste -- -- -- 92
2021-02-08 22:00:00 6.9 9 Oeste 27 Oeste -- -- -- 90
2021-02-08 21:00:00 7.2 10 Oeste 27 Oeste -- -- -- 89
2021-02-08 20:00:00 7.5 11 Oeste 30 Oeste -- -- -- 90
2021-02-08 19:00:00 7.5 13 Oeste 36 Oeste -- -- -- 89
2021-02-08 18:00:00 8.1 15 Oeste 40 Oeste -- -- -- 91
2021-02-08 17:00:00 9.2 15 Oeste 43 Oeste -- -- -- 82
2021-02-08 16:00:00 9.7 19 Oeste 51 Oeste -- -- -- 80
2021-02-08 15:00:00 9.2 23 Oeste 44 Oeste -- -- -- 82
2021-02-08 14:00:00 9.5 20 Oeste 49 Oeste -- -- -- 85
2021-02-08 13:00:00 8.2 21 Oeste 37 Oeste -- -- -- 92
2021-02-08 12:00:00 8.5 16 Oeste 33 Oeste -- -- -- 93
2021-02-08 11:00:00 6.9 16 Oeste 41 Noroeste -- -- -- 97
2021-02-08 10:00:00 6.7 20 Oeste 41 Oeste -- -- -- 95
2021-02-08 09:00:00 6.2 18 Noroeste 48 Oeste -- -- -- 97
2021-02-08 08:00:00 6.2 20 Oeste 43 Oeste -- -- -- 98
2021-02-08 07:00:00 6.1 21 Noroeste 45 Noroeste -- -- -- 98
2021-02-08 06:00:00 6.4 21 Oeste 59 Oeste -- -- -- 96
2021-02-08 05:00:00 8.8 28 Oeste 55 Oeste -- -- -- 98
2021-02-08 04:00:00 9.2 19 Sudoeste 38 Sur -- -- -- 100
2021-02-08 03:00:00 8.4 15 Sudoeste 37 Sudoeste -- -- -- 100
2021-02-08 02:00:00 7.6 13 Sur 31 Sur -- -- -- 100
2021-02-08 01:00:00 7.1 19 Sur 40 Sudoeste -- -- -- 100
2021-02-08 00:00:00 6.6 21 Sur 44 Sudoeste -- -- -- 100
2021-02-07 23:00:00 6.4 21 Sudoeste 39 Sudoeste -- -- -- 100
2021-02-07 22:00:00 6.3 18 Sudoeste 34 Sudoeste -- -- -- 98
2021-02-07 21:00:00 6.5 12 Sudoeste 28 Sudoeste -- -- -- 96
2021-02-07 20:00:00 6.3 9 Oeste 26 Sudoeste -- -- -- 95
2021-02-07 19:00:00 6.2 13 Oeste 31 Oeste -- -- -- 93
2021-02-07 18:00:00 6.5 15 Oeste 33 Oeste -- -- -- 90
2021-02-07 17:00:00 6.3 13 Oeste 32 Oeste -- -- -- 88
2021-02-07 16:00:00 6.3 17 Oeste 37 Oeste -- -- -- 84
2021-02-07 15:00:00 6.8 19 Oeste 33 Oeste -- -- -- 83
2021-02-07 14:00:00 6 15 Oeste 37 Oeste -- -- -- 85
2021-02-07 13:00:00 6.3 13 Noroeste 29 Oeste -- -- -- 88
2021-02-07 12:00:00 5.3 12 Oeste 26 Oeste -- -- -- 100
2021-02-07 11:00:00 4.3 13 Oeste 26 Oeste -- -- -- 100
2021-02-07 10:00:00 4.4 9 Oeste 26 Oeste -- -- -- 100
2021-02-07 09:00:00 4.5 12 Noroeste 24 Noroeste -- -- -- 100
2021-02-07 08:00:00 5.1 11 Noroeste 23 Noroeste -- -- -- 100
2021-02-07 07:00:00 5.4 12 Noroeste 21 Noroeste -- -- -- 100
2021-02-07 06:00:00 5.7 12 Noroeste 28 Noroeste -- -- -- 100
2021-02-07 05:00:00 5.9 10 Noroeste 20 Noroeste -- -- -- 100
2021-02-07 04:00:00 6 8 Noroeste 20 Noroeste -- -- -- 100
2021-02-07 03:00:00 6 9 Noroeste 19 Noroeste -- -- -- 100
2021-02-07 02:00:00 6 7 Noroeste 21 Norte -- -- -- 100
2021-02-07 01:00:00 5.9 11 Noroeste 22 Noroeste -- -- -- 100
2021-02-07 00:00:00 6 9 Noroeste 18 Noroeste -- -- -- 100
2021-02-06 23:00:00 6 8 Noroeste 18 Noroeste -- -- -- 100
2021-02-06 22:00:00 5.8 6 Noroeste 15 Sudoeste -- -- -- 100
2021-02-06 21:00:00 5.8 8 Oeste 20 Oeste -- -- -- 100
2021-02-06 20:00:00 5.7 10 Oeste 22 Oeste -- -- -- 99
2021-02-06 19:00:00 5.8 12 Oeste 23 Oeste -- -- -- 98
2021-02-06 18:00:00 6.9 10 Noroeste 19 Noroeste -- -- -- 95
2021-02-06 17:00:00 7.5 9 Oeste 25 Oeste -- -- -- 94
2021-02-06 16:00:00 7.7 11 Oeste 24 Oeste -- -- -- 96
2021-02-06 15:00:00 7.6 14 Oeste 26 Oeste -- -- -- 96
2021-02-06 14:00:00 7.8 9 Oeste 20 Oeste -- -- -- 98
2021-02-06 13:00:00 7.8 8 Oeste 21 Oeste -- -- -- 95
2021-02-06 12:00:00 7.4 11 Sudoeste 17 Sudoeste -- -- -- 98
2021-02-06 11:00:00 6.9 8 Sudoeste 15 Sudoeste -- -- -- 99
2021-02-06 10:00:00 6.3 3 Oeste 18 Oeste -- -- -- 99
2021-02-06 09:00:00 6.1 6 Sudoeste 17 Oeste -- -- -- 100
2021-02-06 08:00:00 6 13 Oeste 27 Oeste -- -- -- 100
2021-02-06 07:00:00 6.1 10 Sudoeste 21 Sudoeste -- -- -- 100
2021-02-06 06:00:00 5.9 11 Sudoeste 21 Sudoeste -- -- -- 99
2021-02-06 05:00:00 5.7 6 Sudoeste 18 Sudoeste -- -- -- 98
2021-02-06 04:00:00 6.2 8 Sudoeste 18 Sudoeste -- -- -- 99
2021-02-06 03:00:00 6.7 6 Sudoeste 19 Sudoeste -- -- -- 99
2021-02-06 02:00:00 7.1 5 Sudoeste 28 Sur -- -- -- 99
2021-02-06 01:00:00 7.5 13 Sur 32 Sudeste -- -- -- 99
2021-02-06 00:00:00 7.6 10 Sur 31 Sudoeste -- -- -- 99
2021-02-05 23:00:00 7.6 13 Sur 31 Sudoeste -- -- -- 99
2021-02-05 22:00:00 7.7 11 Sur 37 Sudoeste -- -- -- 99
2021-02-05 21:00:00 7.5 19 Sur 44 Sur -- -- -- 100
2021-02-05 20:00:00 7.6 19 Sur 43 Sudeste -- -- -- 100
2021-02-05 19:00:00 7.4 18 Sur 42 Sudeste -- -- -- 99
2021-02-05 18:00:00 7.8 19 Sudeste 39 Sudeste -- -- -- 100
2021-02-05 17:00:00 7.9 17 Sudeste 29 Sudeste -- -- -- 99
2021-02-05 16:00:00 8.4 13 Sudeste 19 Sudeste -- -- -- 98
2021-02-05 15:00:00 8.8 6 Sudeste 14 Este -- -- -- 99
2021-02-05 14:00:00 8.7 10 Sudeste 20 Sudeste -- -- -- 100
2021-02-05 13:00:00 7.9 6 Este 18 Sudoeste -- -- -- 100
2021-02-05 12:00:00 8.1 7 Oeste 17 Oeste -- -- -- 100
2021-02-05 11:00:00 8.1 2 Norte 10 Norte -- -- -- 100
2021-02-05 10:00:00 8.4 4 Norte 11 Oeste 0 -- -- 100
2021-02-05 09:00:00 8.3 7 Oeste 12 Oeste 0 -- -- 100
2021-02-05 08:00:00 8.4 5 Noroeste 10 Noroeste 0 -- -- 99
2021-02-05 07:00:00 8.1 6 Noroeste 12 Oeste 0 -- -- 99
2021-02-05 06:00:00 8.5 3 Noroeste 13 Oeste 0 -- -- 97
2021-02-05 05:00:00 9 3 Oeste 19 Sudoeste 0 -- -- 94
2021-02-05 04:00:00 10.2 10 Sudoeste 17 Sudoeste 0 -- -- 89
2021-02-05 03:00:00 9.8 8 Sur 14 Sur 0 -- -- 95
2021-02-05 02:00:00 9.2 6 Sur 16 Sur 0 -- -- 99
2021-02-05 01:00:00 8.4 6 Sudeste 13 Sudeste 0 -- -- 100
2021-02-05 00:00:00 7.5 0 Calma 9 Sudoeste 0 -- -- 100
2021-02-04 23:00:00 8 6 Sudoeste 14 Oeste 0 -- -- 100
2021-02-04 22:00:00 8.5 4 Sur 13 Sudeste 0 -- -- 100
2021-02-04 21:00:00 8.8 7 Sudeste 11 Sudeste 0 -- -- 100
2021-02-04 20:00:00 9.3 7 Sudeste 17 Sudeste 0 -- -- 100
2021-02-04 19:00:00 9.2 6 Sur 15 Sur 0 -- -- 100
2021-02-04 18:00:00 8.7 0 Calma 13 Noroeste 0 -- -- 99
2021-02-04 17:00:00 10 5 Sur 24 Sur 0 -- -- 98
2021-02-04 16:00:00 10 13 Sur 33 Sur 0 -- -- 97
2021-02-04 15:00:00 9.8 17 Sur 32 Sur 0 -- -- 98
2021-02-04 14:00:00 9.5 18 Sur 44 Sur 0 -- -- 98
2021-02-04 13:00:00 8.9 20 Sur 41 Sur 0 -- -- 100
2021-02-04 12:00:00 8.6 23 Sur 44 Sur 0 -- -- 100
2021-02-04 11:00:00 8.2 17 Sur 33 Sur 0 -- -- 100
2021-02-04 10:00:00 8.1 19 Sudeste 33 Sudeste 0 -- -- 100
2021-02-04 09:00:00 8.3 14 Sudeste 34 Sudeste 0 -- -- 100
2021-02-04 08:00:00 8.4 14 Sudeste 29 Sudeste 0 -- -- 100
2021-02-04 07:00:00 8.4 11 Sudeste 25 Sudeste 0 -- -- 100
2021-02-04 06:00:00 8.9 9 Sur 26 Sur 0 -- -- 100
2021-02-04 05:00:00 8.9 10 Sur 23 Sur 0 -- -- 100
2021-02-04 04:00:00 9.2 9 Sudeste 21 Sudeste 0 -- -- 100
2021-02-04 03:00:00 9.5 5 Sudeste 14 Sudeste 0 -- -- 100
2021-02-04 02:00:00 9.4 7 Sudeste 13 Sudeste 0 -- -- 100
2021-02-04 01:00:00 9.4 5 Sudeste 18 Sudeste 0 -- -- 100
2021-02-04 00:00:00 9.4 9 Sudeste 24 Sur 0 -- -- 100
2021-02-03 23:00:00 9.5 4 Sudeste 14 Sudeste 0 -- -- 99
2021-02-03 22:00:00 9.5 7 Sur 18 Sudeste 0 -- -- 98
2021-02-03 21:00:00 9.7 9 Sudeste 17 Sur 0 -- -- 96
2021-02-03 20:00:00 9.9 6 Sudeste 22 Sur 0 -- -- 94
2021-02-03 19:00:00 10.1 13 Sur 27 Sur 0 -- -- 94
2021-02-03 18:00:00 10.3 13 Sur 26 Sur 0 -- -- 93
2021-02-03 17:00:00 10.4 15 Sur 30 Sur 0 -- -- 92
2021-02-03 16:00:00 11.4 16 Sur 37 Sudoeste 0 -- -- 87
2021-02-03 15:00:00 10.9 21 Sudoeste 39 Sudoeste 0 -- -- 89
2021-02-03 14:00:00 11 9 Sur 34 Sur 0 -- -- 91
2021-02-03 13:00:00 10.7 18 Sur 39 Sudoeste 0 -- -- 90
2021-02-03 12:00:00 10.7 17 Sur 42 Sudoeste 0 -- -- 87
2021-02-03 11:00:00 9.8 13 Sur 38 Sudoeste 0 -- -- 89
2021-02-03 10:00:00 8.6 14 Sur 35 Sudoeste 0 -- -- 93
2021-02-03 09:00:00 8.1 21 Sudoeste 36 Sur 0 -- -- 93
2021-02-03 08:00:00 7.7 15 Sur 28 Sur 0 -- -- 94
2021-02-03 07:00:00 7.5 9 Sur 20 Sur 0 -- -- 94
2021-02-03 06:00:00 7.7 9 Sur 25 Sur 0 -- -- 91
2021-02-03 05:00:00 8.2 13 Sudoeste 23 Sur 0 -- -- 89
2021-02-03 04:00:00 8.6 5 Oeste 14 Oeste 0 -- -- 90
2021-02-03 03:00:00 9 3 Sudoeste 14 Sudoeste 0 -- -- 90
2021-02-03 02:00:00 9.1 8 Sudoeste 18 Sudoeste 0 -- -- 86
2021-02-03 01:00:00 9.4 5 Oeste 15 Sudoeste 0 -- -- 88
2021-02-03 00:00:00 9.7 7 Sudoeste 17 Sudoeste 0 -- -- 93
2021-02-02 23:00:00 9.9 9 Sudoeste 15 Sudoeste 0 -- -- 93
2021-02-02 22:00:00 10 5 Sudoeste 14 Sudoeste 0 -- -- 94
2021-02-02 21:00:00 10 6 Sudoeste 14 Sur 0 -- -- 94
2021-02-02 20:00:00 10.3 4 Sudoeste 14 Sudoeste 0 -- -- 92
2021-02-02 19:00:00 10.7 6 Sur 21 Sudoeste 0 -- -- 89
2021-02-02 18:00:00 11.4 9 Sudoeste 22 Sur 0 -- -- 86
2021-02-02 17:00:00 11.9 9 Sudoeste 24 Sudoeste 0 -- -- 83
2021-02-02 16:00:00 12.6 8 Sur 21 Sudoeste 0 -- -- 85
2021-02-02 15:00:00 12.1 9 Sur 17 Sudoeste 0 -- -- 83
2021-02-02 14:00:00 11.8 6 Sudoeste 22 Sudoeste 0 -- -- 84
2021-02-02 13:00:00 11.4 12 Sudoeste 21 Sudoeste 0 -- -- 88
2021-02-02 12:00:00 10.7 6 Sur 11 Sudoeste 0 -- -- 94
2021-02-02 11:00:00 10.8 9 Sudoeste 16 Sudoeste 0 -- -- 93
2021-02-02 10:00:00 8.8 4 Sudeste 10 Sur 0 -- -- 100
2021-02-02 09:00:00 8.4 0 Calma 9 Sudoeste 0 -- -- 99
2021-02-02 08:00:00 8.8 5 Oeste 10 Sudoeste 0 -- -- 100
2021-02-02 07:00:00 8.4 2 Oeste 10 Oeste 0 -- -- 100
2021-02-02 06:00:00 8.6 3 Sudoeste 13 Sudoeste 0 -- -- 100
2021-02-02 05:00:00 8.8 5 Oeste 19 Oeste 0 -- -- 100
2021-02-02 04:00:00 8.8 6 Oeste 17 Oeste 0 -- -- 100
2021-02-02 03:00:00 8.8 10 Oeste 20 Oeste 0 -- -- 99
2021-02-02 02:00:00 8.8 11 Oeste 19 Oeste 0 -- -- 98
2021-02-02 01:00:00 8.5 7 Oeste 15 Sudoeste 0 -- -- 98
2021-02-02 00:00:00 7.9 8 Oeste 16 Oeste 0 -- -- 98
2021-02-01 23:00:00 7.3 3 Oeste 8 Oeste 0 -- -- 97
2021-02-01 22:00:00 7.2 0 Calma 3 Noroeste 0 -- -- 93
2021-02-01 21:00:00 8.9 0 Calma 16 Noroeste 0 -- -- 89
2021-02-01 20:00:00 9.7 7 Oeste 17 Oeste 0 -- -- 88
2021-02-01 19:00:00 10.3 7 Noroeste 18 Noroeste 0 -- -- 88
2021-02-01 18:00:00 11.2 9 Noroeste 26 Oeste 0 -- -- 85
2021-02-01 17:00:00 13 12 Noroeste 22 Noroeste 0 -- -- 77
2021-02-01 16:00:00 13.4 12 Oeste 26 Oeste 0 -- -- 77
2021-02-01 15:00:00 12.8 11 Noroeste 24 Oeste 0 -- -- 78
2021-02-01 14:00:00 12.1 13 Noroeste 27 Oeste 0 -- -- 83
2021-02-01 13:00:00 11.6 12 Noroeste 26 Noroeste 0 -- -- 86
2021-02-01 12:00:00 10.9 10 Oeste 23 Oeste 0 -- -- 88
2021-02-01 11:00:00 9.5 12 Oeste 26 Oeste 0 -- -- 92
2021-02-01 10:00:00 8.7 13 Oeste 28 Oeste 0 -- -- 95
2021-02-01 09:00:00 8.4 12 Oeste 29 Oeste 0 -- -- 97
2021-02-01 08:00:00 8.9 13 Noroeste 32 Noroeste 0 -- -- 96
2021-02-01 07:00:00 9.5 16 Oeste 32 Noroeste 0 -- -- 97
2021-02-01 06:00:00 9.5 15 Oeste 35 Oeste 0 -- -- 98
2021-02-01 05:00:00 9.5 14 Noroeste 35 Oeste 0 -- -- 98
2021-02-01 04:00:00 9.9 18 Oeste 40 Oeste 0 -- -- 98
2021-02-01 03:00:00 10.5 21 Noroeste 45 Noroeste 0 -- -- 100
2021-02-01 02:00:00 10.8 21 Noroeste 46 Oeste 0 -- -- 99
2021-02-01 01:00:00 11.3 19 Noroeste 39 Oeste 0 -- -- 99
2021-02-01 00:00:00 11.5 23 Oeste 38 Oeste 0 -- -- 99
2021-01-31 23:00:00 11.4 23 Oeste 45 Noroeste 0 -- -- 99
2021-01-31 22:00:00 11.3 24 Oeste 47 Oeste 0 -- -- 98
2021-01-31 21:00:00 11.2 15 Oeste 32 Oeste 0 -- -- 97
2021-01-31 20:00:00 10.9 13 Oeste 28 Oeste 0 -- -- 97
2021-01-31 19:00:00 10.9 10 Oeste 21 Oeste 0 -- -- 96
2021-01-31 18:00:00 11.3 10 Oeste 31 Oeste 0 -- -- 95
2021-01-31 17:00:00 11.6 14 Oeste 33 Oeste 0 -- -- 94
2021-01-31 16:00:00 11.7 18 Oeste 35 Oeste 0 -- -- 92
2021-01-31 15:00:00 11.6 14 Oeste 35 Oeste 0 -- -- 91
2021-01-31 14:00:00 11.2 18 Oeste 34 Oeste 0 -- -- 91
2021-01-31 13:00:00 9.9 13 Oeste 31 Oeste 0 -- -- 93
2021-01-31 12:00:00 9.7 15 Oeste 33 Oeste 0 -- -- 89
2021-01-31 11:00:00 8.8 15 Oeste 32 Oeste 0 -- -- 96
2021-01-31 10:00:00 7.8 23 Oeste 42 Oeste 0 -- -- 100
2021-01-31 09:00:00 7.7 14 Oeste 37 Noroeste 0 -- -- 100
2021-01-31 08:00:00 7.5 20 Oeste 38 Noroeste 0 -- -- 100
2021-01-31 07:00:00 7.3 22 Noroeste 45 Noroeste 0 -- -- 99
2021-01-31 06:00:00 7.1 26 Noroeste 48 Oeste 0 -- -- 98
2021-01-31 05:00:00 6.4 18 Oeste 44 Noroeste 0 -- -- 96
2021-01-31 04:00:00 6.6 20 Oeste 48 Oeste 0 -- -- 95
2021-01-31 03:00:00 6.5 20 Oeste 49 Oeste 0 -- -- 95
2021-01-31 02:00:00 6.5 26 Noroeste 48 Noroeste 0 -- -- 93
2021-01-31 01:00:00 6.8 25 Noroeste 48 Noroeste 0 -- -- 92
2021-01-31 00:00:00 7 24 Oeste 43 Oeste 0 -- -- 91